createdAt,value
2019-03-19T00:00:35.527Z,0.40
2019-03-19T00:03:03.231Z,0.30
2019-03-19T00:05:30.552Z,0.20
2019-03-19T00:07:57.790Z,0.20
2019-03-19T00:10:25.153Z,0.20
2019-03-19T00:12:52.531Z,0.20
2019-03-19T00:15:20.023Z,0.20
2019-03-19T00:17:47.301Z,0.20
2019-03-19T00:20:14.638Z,0.20
2019-03-19T00:22:41.996Z,0.20
2019-03-19T00:25:11.633Z,0.10
2019-03-19T00:27:39.235Z,0.00
2019-03-19T00:30:07.660Z,0.00
2019-03-19T00:32:34.966Z,-0.10
2019-03-19T00:35:02.723Z,-0.10
2019-03-19T00:37:30.121Z,-0.10
2019-03-19T00:39:57.449Z,-0.20
2019-03-19T00:42:24.912Z,-0.20
2019-03-19T00:44:52.259Z,-0.20
2019-03-19T00:47:19.672Z,-0.20
2019-03-19T00:49:48.023Z,-0.20
2019-03-19T00:52:15.218Z,-0.30
2019-03-19T00:54:42.468Z,-0.20
2019-03-19T00:57:09.896Z,-0.30
2019-03-19T00:59:37.215Z,-0.30
2019-03-19T01:02:04.668Z,-0.40
2019-03-19T01:04:31.875Z,-0.40
2019-03-19T01:06:59.218Z,-0.40
2019-03-19T01:09:26.434Z,-0.40
2019-03-19T01:11:53.888Z,-0.50
2019-03-19T01:14:21.118Z,-0.40
2019-03-19T01:16:48.560Z,-0.50
2019-03-19T01:19:15.915Z,-0.60
2019-03-19T01:21:43.164Z,-0.60
2019-03-19T01:24:10.470Z,-0.60
2019-03-19T01:26:37.720Z,-0.60
2019-03-19T01:29:04.935Z,-0.60
2019-03-19T01:31:32.067Z,-0.60
2019-03-19T01:33:59.356Z,-0.70
2019-03-19T01:36:26.950Z,-0.80
2019-03-19T01:38:54.279Z,-0.80
2019-03-19T01:41:21.620Z,-0.80
2019-03-19T01:43:49.000Z,-0.80
2019-03-19T01:46:16.222Z,-0.80
2019-03-19T01:48:43.862Z,-0.80
2019-03-19T01:51:11.203Z,-0.80
2019-03-19T01:53:38.419Z,-0.80
2019-03-19T01:56:05.900Z,-0.90
2019-03-19T01:58:33.311Z,-0.90
2019-03-19T02:01:00.963Z,-0.90
2019-03-19T02:03:28.313Z,-1.00
2019-03-19T02:05:55.672Z,-1.00
2019-03-19T02:08:23.122Z,-1.00
2019-03-19T02:10:50.431Z,-1.00
2019-03-19T02:13:17.806Z,-1.00
2019-03-19T02:15:45.124Z,-1.00
2019-03-19T02:18:12.452Z,-1.10
2019-03-19T02:20:39.817Z,-1.10
2019-03-19T02:23:07.250Z,-1.10
2019-03-19T02:25:34.592Z,-1.10
2019-03-19T02:28:02.075Z,-1.20
2019-03-19T02:30:29.518Z,-1.20
2019-03-19T02:32:56.936Z,-1.30
2019-03-19T02:35:26.494Z,-1.20
2019-03-19T02:37:53.817Z,-1.30
2019-03-19T02:40:21.169Z,-1.30
2019-03-19T02:42:48.497Z,-1.30
2019-03-19T02:45:15.845Z,-1.20
2019-03-19T02:47:43.170Z,-1.20
2019-03-19T02:50:10.708Z,-1.30
2019-03-19T02:52:38.074Z,-1.30
2019-03-19T02:55:06.193Z,-1.30
2019-03-19T02:57:33.532Z,-1.30
2019-03-19T03:00:01.157Z,-1.40
2019-03-19T03:02:28.484Z,-1.40
2019-03-19T03:04:56.051Z,-1.40
2019-03-19T03:07:24.201Z,-1.40
2019-03-19T03:09:51.553Z,-1.50
2019-03-19T03:12:18.879Z,-1.40
2019-03-19T03:14:46.498Z,-1.40
2019-03-19T03:17:13.949Z,-1.40
2019-03-19T03:19:41.329Z,-1.30
2019-03-19T03:22:08.682Z,-1.40
2019-03-19T03:24:36.017Z,-1.40
2019-03-19T03:27:03.642Z,-1.40
2019-03-19T03:29:31.172Z,-1.40
2019-03-19T03:31:58.577Z,-1.40
2019-03-19T03:34:25.975Z,-1.50
2019-03-19T03:36:53.271Z,-1.60
2019-03-19T03:39:20.507Z,-1.50
2019-03-19T03:41:47.957Z,-1.50
2019-03-19T03:44:15.249Z,-1.60
2019-03-19T03:46:42.604Z,-1.60
2019-03-19T03:49:09.925Z,-1.60
2019-03-19T03:51:37.368Z,-1.60
2019-03-19T03:54:04.577Z,-1.70
2019-03-19T03:56:31.924Z,-1.60
2019-03-19T03:59:01.061Z,-1.70
2019-03-19T04:01:28.384Z,-1.70
2019-03-19T04:03:55.721Z,-1.70
2019-03-19T04:06:23.073Z,-1.70
2019-03-19T04:08:50.313Z,-1.70
2019-03-19T04:11:17.678Z,-1.70
2019-03-19T04:13:45.018Z,-1.80
2019-03-19T04:16:12.348Z,-1.80
2019-03-19T04:18:39.712Z,-1.80
2019-03-19T04:21:07.281Z,-1.80
2019-03-19T04:23:34.650Z,-1.80
2019-03-19T04:26:02.057Z,-1.80
2019-03-19T04:28:29.405Z,-1.80
2019-03-19T04:30:56.728Z,-1.70
2019-03-19T04:33:24.017Z,-1.80
2019-03-19T04:35:51.458Z,-1.80
2019-03-19T04:38:18.686Z,-1.80
2019-03-19T04:40:46.116Z,-1.80
2019-03-19T04:43:13.450Z,-1.80
2019-03-19T04:45:40.788Z,-1.90
2019-03-19T04:48:08.126Z,-1.90
2019-03-19T04:50:35.496Z,-1.90
2019-03-19T04:53:02.701Z,-1.90
2019-03-19T04:55:30.163Z,-1.90
2019-03-19T04:57:57.489Z,-1.80
2019-03-19T05:00:24.798Z,-1.90
2019-03-19T05:02:53.875Z,-1.90
2019-03-19T05:05:21.243Z,-1.90
2019-03-19T05:07:48.677Z,-2.00
2019-03-19T05:10:16.134Z,-2.00
2019-03-19T05:12:43.464Z,-2.00
2019-03-19T05:15:10.768Z,-2.00
2019-03-19T05:17:38.092Z,-1.90
2019-03-19T05:20:07.593Z,-2.00
2019-03-19T05:22:34.943Z,-1.90
2019-03-19T05:25:02.516Z,-1.90
2019-03-19T05:27:37.315Z,-1.90
2019-03-19T05:29:59.083Z,-1.90
2019-03-19T05:32:26.384Z,-1.80
2019-03-19T05:34:53.656Z,-1.80
2019-03-19T05:37:20.874Z,-1.80
2019-03-19T05:39:48.131Z,-1.70
2019-03-19T05:42:15.351Z,-1.70
2019-03-19T05:44:42.979Z,-1.70
2019-03-19T05:47:10.524Z,-1.70
2019-03-19T05:49:37.952Z,-1.70
2019-03-19T05:52:05.407Z,-1.70
2019-03-19T05:54:32.742Z,-1.70
2019-03-19T05:57:00.102Z,-1.60
2019-03-19T05:59:27.321Z,-1.60
2019-03-19T06:01:54.967Z,-1.50
2019-03-19T06:04:22.205Z,-1.50
2019-03-19T06:06:49.863Z,-1.40
2019-03-19T06:09:17.238Z,-1.40
2019-03-19T06:11:44.476Z,-1.30
2019-03-19T06:14:11.805Z,-1.30
2019-03-19T06:16:39.329Z,-1.20
2019-03-19T06:19:06.688Z,-1.20
2019-03-19T06:21:33.884Z,-1.10
2019-03-19T06:24:01.212Z,-1.10
2019-03-19T06:26:28.438Z,-1.00
2019-03-19T06:28:55.787Z,-1.00
2019-03-19T06:31:22.998Z,-0.90
2019-03-19T06:33:50.249Z,-0.90
2019-03-19T06:36:17.623Z,-0.80
2019-03-19T06:38:44.944Z,-0.80
2019-03-19T06:41:12.055Z,-0.80
2019-03-19T06:43:39.310Z,-0.70
2019-03-19T06:46:06.517Z,-0.70
2019-03-19T06:48:33.876Z,-0.60
2019-03-19T06:51:01.181Z,-0.60
2019-03-19T06:53:28.540Z,-0.60
2019-03-19T06:55:55.845Z,-0.60
2019-03-19T06:58:23.106Z,-0.50
2019-03-19T07:00:50.454Z,-0.40
2019-03-19T07:03:17.667Z,-0.30
2019-03-19T07:05:45.043Z,-0.30
2019-03-19T07:08:12.386Z,-0.30
2019-03-19T07:10:40.028Z,-0.30
2019-03-19T07:13:07.334Z,-0.20
2019-03-19T07:15:34.580Z,-0.10
2019-03-19T07:18:01.907Z,0.00
2019-03-19T07:20:29.236Z,-0.10
2019-03-19T07:22:56.571Z,0.00
2019-03-19T07:25:23.811Z,0.10
2019-03-19T07:27:51.113Z,0.20
2019-03-19T07:30:18.356Z,0.20
2019-03-19T07:32:45.720Z,0.30
2019-03-19T07:35:13.258Z,0.30
2019-03-19T07:37:40.891Z,0.40
2019-03-19T07:40:08.759Z,0.40
2019-03-19T07:42:36.163Z,0.30
2019-03-19T07:45:04.256Z,0.40
2019-03-19T07:47:31.608Z,0.50
2019-03-19T07:49:58.859Z,0.60
2019-03-19T07:52:26.064Z,0.60
2019-03-19T07:54:53.278Z,0.50
2019-03-19T07:57:20.615Z,0.60
2019-03-19T07:59:47.968Z,0.70
2019-03-19T08:02:15.415Z,0.80
2019-03-19T08:04:42.846Z,0.80
2019-03-19T08:07:10.272Z,0.70
2019-03-19T08:09:37.637Z,0.80
2019-03-19T08:12:05.016Z,0.90
2019-03-19T08:14:32.476Z,1.00
2019-03-19T08:16:59.687Z,1.10
2019-03-19T08:19:26.941Z,1.00
2019-03-19T08:21:54.299Z,1.00
2019-03-19T08:24:21.521Z,1.10
2019-03-19T08:26:49.221Z,1.10
2019-03-19T08:29:16.660Z,1.20
2019-03-19T08:31:43.967Z,1.20
2019-03-19T08:34:11.255Z,1.20
2019-03-19T08:36:38.472Z,1.30
2019-03-19T08:39:06.812Z,1.40
2019-03-19T08:41:34.110Z,1.40
2019-03-19T08:44:01.414Z,1.50
2019-03-19T08:46:28.663Z,1.40
2019-03-19T08:48:56.074Z,1.50
2019-03-19T08:51:23.409Z,1.60
2019-03-19T08:53:50.621Z,1.70
2019-03-19T08:56:17.872Z,1.70
2019-03-19T08:58:45.187Z,1.80
2019-03-19T09:01:12.555Z,1.70
2019-03-19T09:03:39.884Z,1.80
2019-03-19T09:06:07.195Z,1.90
2019-03-19T09:08:34.577Z,2.00
2019-03-19T09:11:01.896Z,2.00
2019-03-19T09:13:29.237Z,1.90
2019-03-19T09:15:56.451Z,1.90
2019-03-19T09:18:23.805Z,1.90
2019-03-19T09:20:51.125Z,2.00
2019-03-19T09:23:18.471Z,2.10
2019-03-19T09:25:45.821Z,2.20
2019-03-19T09:28:13.255Z,2.20
2019-03-19T09:30:40.458Z,2.20
2019-03-19T09:33:07.632Z,2.30
2019-03-19T09:35:35.064Z,2.40
2019-03-19T09:38:02.360Z,2.40
2019-03-19T09:40:29.809Z,2.40
2019-03-19T09:42:57.219Z,2.40
2019-03-19T09:45:24.675Z,2.50
2019-03-19T09:47:51.901Z,2.60
2019-03-19T09:50:19.232Z,2.60
2019-03-19T09:52:46.752Z,2.70
2019-03-19T09:55:14.408Z,2.70
2019-03-19T09:57:41.725Z,2.70
2019-03-19T10:00:12.565Z,2.70
2019-03-19T10:02:39.856Z,2.70
2019-03-19T10:05:07.165Z,2.90
2019-03-19T10:07:34.503Z,2.90
2019-03-19T10:10:01.919Z,2.90
2019-03-19T10:12:29.276Z,3.10
2019-03-19T10:14:56.631Z,3.10
2019-03-19T10:17:24.312Z,3.10
2019-03-19T10:19:51.719Z,3.00
2019-03-19T10:22:19.056Z,3.00
2019-03-19T10:24:46.486Z,3.10
2019-03-19T10:27:13.938Z,3.10
2019-03-19T10:29:41.175Z,3.20
2019-03-19T10:32:08.427Z,3.30
2019-03-19T10:34:35.761Z,3.20
2019-03-19T10:37:03.404Z,3.30
2019-03-19T10:39:30.753Z,3.30
2019-03-19T10:41:57.995Z,3.30
2019-03-19T10:44:25.301Z,3.30
2019-03-19T10:46:52.538Z,3.30
2019-03-19T10:49:19.744Z,3.40
2019-03-19T10:51:47.064Z,3.40
2019-03-19T10:54:14.452Z,3.40
2019-03-19T10:56:41.874Z,3.50
2019-03-19T10:59:09.068Z,3.60
2019-03-19T11:01:36.413Z,3.60
2019-03-19T11:04:03.949Z,3.60
2019-03-19T11:06:31.277Z,3.60
2019-03-19T11:08:58.632Z,3.60
2019-03-19T11:11:26.004Z,3.60
2019-03-19T11:13:53.224Z,3.60
2019-03-19T11:16:20.643Z,3.60
2019-03-19T11:18:47.872Z,3.70
2019-03-19T11:21:15.035Z,3.80
2019-03-19T11:23:42.240Z,3.80
2019-03-19T11:26:09.400Z,3.90
2019-03-19T11:28:36.709Z,3.90
2019-03-19T11:31:04.065Z,3.90
2019-03-19T11:33:31.576Z,3.90
2019-03-19T11:35:58.887Z,3.90
2019-03-19T11:38:26.242Z,4.00
2019-03-19T11:40:53.470Z,4.10
2019-03-19T11:43:20.733Z,4.20
2019-03-19T11:45:48.039Z,4.20
2019-03-19T11:48:15.457Z,4.20
2019-03-19T11:50:42.810Z,4.30
2019-03-19T11:53:10.035Z,4.30
2019-03-19T11:55:37.246Z,4.30
2019-03-19T11:58:04.481Z,4.40
2019-03-19T12:00:34.471Z,4.60
2019-03-19T12:03:12.224Z,4.60
2019-03-19T12:05:30.982Z,4.70
2019-03-19T12:07:58.355Z,4.60
2019-03-19T12:10:25.912Z,4.50
2019-03-19T12:12:53.328Z,4.40
2019-03-19T12:15:20.681Z,4.50
2019-03-19T12:17:48.902Z,4.80
2019-03-19T12:20:16.485Z,4.70
2019-03-19T12:22:43.824Z,4.60
2019-03-19T12:25:11.274Z,4.60
2019-03-19T12:27:38.811Z,4.60
2019-03-19T12:30:07.196Z,4.50
2019-03-19T12:32:34.547Z,4.60
2019-03-19T12:35:02.244Z,4.60
2019-03-19T12:37:29.676Z,4.60
2019-03-19T12:39:57.200Z,4.60
2019-03-19T12:42:24.981Z,4.80
2019-03-19T12:44:52.466Z,4.80
2019-03-19T12:47:19.911Z,4.90
2019-03-19T12:49:47.229Z,4.90
2019-03-19T12:52:14.688Z,4.90
2019-03-19T12:54:42.527Z,4.90
2019-03-19T12:57:09.873Z,4.80
2019-03-19T12:59:37.194Z,5.00
2019-03-19T13:02:04.659Z,5.20
2019-03-19T13:04:32.184Z,5.20
2019-03-19T13:06:59.632Z,5.20
2019-03-19T13:09:27.080Z,5.40
2019-03-19T13:11:54.428Z,5.40
2019-03-19T13:14:21.744Z,5.30
2019-03-19T13:16:49.152Z,5.20
2019-03-19T13:19:16.252Z,5.20
2019-03-19T13:21:43.529Z,5.40
2019-03-19T13:24:10.917Z,5.50
2019-03-19T13:26:38.364Z,5.50
2019-03-19T13:29:05.670Z,5.60
2019-03-19T13:31:32.918Z,5.50
2019-03-19T13:34:00.355Z,5.50
2019-03-19T13:36:27.992Z,5.60
2019-03-19T13:38:55.684Z,5.60
2019-03-19T13:41:23.388Z,5.40
2019-03-19T13:43:51.506Z,5.50
2019-03-19T13:46:19.140Z,5.50
2019-03-19T13:48:46.699Z,5.60
2019-03-19T13:51:14.497Z,5.70
2019-03-19T13:53:42.104Z,5.80
2019-03-19T13:56:09.407Z,5.90
2019-03-19T13:58:36.716Z,5.90
2019-03-19T14:01:04.106Z,5.90
2019-03-19T14:03:31.378Z,5.90
2019-03-19T14:05:58.745Z,5.90
2019-03-19T14:08:26.000Z,5.80
2019-03-19T14:10:54.373Z,5.90
2019-03-19T14:13:22.070Z,5.80
2019-03-19T14:15:49.605Z,5.70
2019-03-19T14:18:17.082Z,5.60
2019-03-19T14:20:44.474Z,5.70
2019-03-19T14:23:11.849Z,5.90
2019-03-19T14:25:39.232Z,5.80
2019-03-19T14:28:06.484Z,5.80
2019-03-19T14:30:33.926Z,5.90
2019-03-19T14:33:01.401Z,5.90
2019-03-19T14:35:36.929Z,5.70
2019-03-19T14:37:58.141Z,5.70
2019-03-19T14:40:25.566Z,5.80
2019-03-19T14:42:52.874Z,5.90
2019-03-19T14:45:20.247Z,5.90
2019-03-19T14:47:47.661Z,5.90
2019-03-19T14:50:15.006Z,5.90
2019-03-19T14:52:43.922Z,5.90
2019-03-19T14:55:11.516Z,5.90
2019-03-19T14:57:38.876Z,5.80
2019-03-19T15:00:08.334Z,5.70
2019-03-19T15:02:35.711Z,5.80
2019-03-19T15:05:03.398Z,5.90
2019-03-19T15:07:30.902Z,5.80
2019-03-19T15:09:58.908Z,5.70
2019-03-19T15:12:27.245Z,5.60
2019-03-19T15:14:54.963Z,5.60
2019-03-19T15:17:22.381Z,5.60
2019-03-19T15:19:49.623Z,5.80
2019-03-19T15:22:16.972Z,5.90
2019-03-19T15:24:44.467Z,5.90
2019-03-19T15:27:12.266Z,5.80
2019-03-19T15:29:39.547Z,5.60
2019-03-19T15:32:06.992Z,5.70
2019-03-19T15:34:34.638Z,5.60
2019-03-19T15:37:02.076Z,5.60
2019-03-19T15:39:29.524Z,5.70
2019-03-19T15:41:56.878Z,5.80
2019-03-19T15:44:24.322Z,5.80
2019-03-19T15:46:51.705Z,5.80
2019-03-19T15:49:19.060Z,5.70
2019-03-19T15:51:46.391Z,5.50
2019-03-19T15:54:13.751Z,5.70
2019-03-19T15:56:41.074Z,5.80
2019-03-19T15:59:08.419Z,5.70
2019-03-19T16:01:40.414Z,5.60
2019-03-19T16:04:04.819Z,5.50
2019-03-19T16:06:32.179Z,5.50
2019-03-19T16:08:59.407Z,5.40
2019-03-19T16:11:26.846Z,5.40
2019-03-19T16:13:54.313Z,5.30
2019-03-19T16:16:21.684Z,5.40
2019-03-19T16:18:49.032Z,5.30
2019-03-19T16:21:16.476Z,5.30
2019-03-19T16:23:43.827Z,5.30
2019-03-19T16:26:11.047Z,5.30
2019-03-19T16:28:38.391Z,5.20
2019-03-19T16:31:05.795Z,5.20
2019-03-19T16:33:33.147Z,5.10
2019-03-19T16:36:00.604Z,5.10
2019-03-19T16:38:27.958Z,4.90
2019-03-19T16:40:55.338Z,5.00
2019-03-19T16:43:22.564Z,4.90
2019-03-19T16:45:49.925Z,4.80
2019-03-19T16:48:17.548Z,4.60
2019-03-19T16:50:44.792Z,4.40
2019-03-19T16:53:11.996Z,4.20
2019-03-19T16:55:39.370Z,4.00
2019-03-19T16:58:06.695Z,3.70
2019-03-19T17:00:33.938Z,3.50
2019-03-19T17:03:01.372Z,3.20
2019-03-19T17:05:28.581Z,2.90
2019-03-19T17:07:55.943Z,2.70
2019-03-19T17:10:23.302Z,2.40
2019-03-19T17:12:50.689Z,2.20
2019-03-19T17:15:18.025Z,1.90
2019-03-19T17:17:45.396Z,1.80
2019-03-19T17:20:13.165Z,1.70
2019-03-19T17:22:40.610Z,1.50
2019-03-19T17:25:09.299Z,1.40
2019-03-19T17:27:36.557Z,1.30
2019-03-19T17:30:05.789Z,1.10
2019-03-19T17:32:33.072Z,0.90
2019-03-19T17:35:00.530Z,0.70
2019-03-19T17:37:28.016Z,0.50
2019-03-19T17:39:55.371Z,0.30
2019-03-19T17:42:22.821Z,0.10
2019-03-19T17:44:50.226Z,0.00
2019-03-19T17:47:17.580Z,-0.20
2019-03-19T17:49:44.946Z,-0.20
2019-03-19T17:52:12.444Z,-0.30
2019-03-19T17:54:39.763Z,0.00
2019-03-19T17:57:07.058Z,0.50
2019-03-19T17:59:34.428Z,0.70
2019-03-19T18:02:01.782Z,0.60
2019-03-19T18:04:29.211Z,0.40
2019-03-19T18:06:56.651Z,0.20
2019-03-19T18:09:23.868Z,0.20
2019-03-19T18:11:51.405Z,0.30
2019-03-19T18:14:18.856Z,0.30
2019-03-19T18:16:46.167Z,0.40
2019-03-19T18:19:13.472Z,0.50
2019-03-19T18:21:40.731Z,0.60
2019-03-19T18:24:07.874Z,0.60
2019-03-19T18:26:35.211Z,0.70
2019-03-19T18:29:02.691Z,0.70
2019-03-19T18:31:30.023Z,0.70
2019-03-19T18:33:57.242Z,0.80
2019-03-19T18:36:24.870Z,0.80
2019-03-19T18:38:52.133Z,0.80
2019-03-19T18:41:19.474Z,0.70
2019-03-19T18:43:46.797Z,0.70
2019-03-19T18:46:14.278Z,0.60
2019-03-19T18:48:41.708Z,0.60
2019-03-19T18:51:08.989Z,0.60
2019-03-19T18:53:36.408Z,0.50
2019-03-19T18:56:03.747Z,0.40
2019-03-19T18:58:31.085Z,0.40
2019-03-19T19:00:58.433Z,0.40
2019-03-19T19:03:25.688Z,0.40
2019-03-19T19:05:52.905Z,0.40
2019-03-19T19:08:20.244Z,0.40
2019-03-19T19:10:47.559Z,0.40
2019-03-19T19:13:14.804Z,0.40
2019-03-19T19:15:42.420Z,0.30
2019-03-19T19:18:09.782Z,0.20
2019-03-19T19:20:37.269Z,0.10
2019-03-19T19:23:04.785Z,0.10
2019-03-19T19:25:32.136Z,0.10
2019-03-19T19:27:59.587Z,0.00
2019-03-19T19:30:26.789Z,-0.20
2019-03-19T19:33:01.554Z,-0.30
2019-03-19T19:35:23.360Z,-0.60
2019-03-19T19:37:50.706Z,-0.80
2019-03-19T19:40:18.012Z,-1.10
2019-03-19T19:42:45.288Z,-1.30
2019-03-19T19:45:12.590Z,-1.50
2019-03-19T19:47:39.904Z,-1.60
2019-03-19T19:50:09.200Z,-1.80
2019-03-19T19:52:36.575Z,-1.90
2019-03-19T19:55:04.373Z,-2.00
2019-03-19T19:57:31.976Z,-2.10
2019-03-19T20:00:01.760Z,-2.20
2019-03-19T20:02:28.695Z,-2.30
2019-03-19T20:05:03.023Z,-2.40
2019-03-19T20:07:25.045Z,-2.50
2019-03-19T20:09:52.317Z,-2.60
2019-03-19T20:12:19.864Z,-2.60
2019-03-19T20:14:47.676Z,-2.70
2019-03-19T20:17:15.048Z,-2.80
2019-03-19T20:19:42.483Z,-2.90
2019-03-19T20:22:09.896Z,-3.00
2019-03-19T20:24:37.165Z,-3.10
2019-03-19T20:27:04.610Z,-3.10
2019-03-19T20:29:31.948Z,-3.20
2019-03-19T20:31:59.507Z,-3.20
2019-03-19T20:34:26.762Z,-3.20
2019-03-19T20:36:54.033Z,-3.30
2019-03-19T20:39:21.200Z,-3.30
2019-03-19T20:41:48.628Z,-3.30
2019-03-19T20:44:15.870Z,-3.40
2019-03-19T20:46:43.202Z,-3.40
2019-03-19T20:49:10.549Z,-3.40
2019-03-19T20:51:37.763Z,-3.50
2019-03-19T20:54:05.054Z,-3.50
2019-03-19T20:56:32.455Z,-3.60
2019-03-19T20:58:59.690Z,-3.60
2019-03-19T21:01:26.901Z,-3.60
2019-03-19T21:03:54.245Z,-3.70
2019-03-19T21:06:21.642Z,-3.70
2019-03-19T21:08:49.052Z,-3.70
2019-03-19T21:11:16.392Z,-3.70
2019-03-19T21:13:43.755Z,-3.70
2019-03-19T21:16:11.107Z,-3.70
2019-03-19T21:18:38.483Z,-3.70
2019-03-19T21:21:05.803Z,-3.70
2019-03-19T21:23:33.044Z,-3.70
2019-03-19T21:26:00.470Z,-3.60
2019-03-19T21:28:27.805Z,-3.60
2019-03-19T21:30:55.064Z,-3.70
2019-03-19T21:33:22.417Z,-3.80
2019-03-19T21:35:49.843Z,-3.80
2019-03-19T21:38:17.190Z,-3.70
2019-03-19T21:40:44.436Z,-3.80
2019-03-19T21:43:11.763Z,-3.80
2019-03-19T21:45:39.102Z,-3.80
2019-03-19T21:48:06.312Z,-3.80
2019-03-19T21:50:33.669Z,-3.90
2019-03-19T21:53:01.011Z,-3.90
2019-03-19T21:55:28.332Z,-3.90
2019-03-19T21:57:55.815Z,-3.90
2019-03-19T22:00:24.448Z,-3.90
2019-03-19T22:02:51.810Z,-3.90
2019-03-19T22:05:18.967Z,-4.00
2019-03-19T22:07:46.306Z,-4.00
2019-03-19T22:10:13.984Z,-4.00
2019-03-19T22:12:41.287Z,-3.90
2019-03-19T22:15:12.668Z,-4.00
2019-03-19T22:17:40.117Z,-3.90
2019-03-19T22:20:07.557Z,-3.90
2019-03-19T22:22:34.908Z,-3.90
2019-03-19T22:25:02.243Z,-3.90
2019-03-19T22:27:29.610Z,-3.90
2019-03-19T22:29:56.950Z,-3.90
2019-03-19T22:32:24.318Z,-3.90
2019-03-19T22:34:51.641Z,-3.90
2019-03-19T22:37:18.952Z,-4.00
2019-03-19T22:39:46.207Z,-3.90
2019-03-19T22:42:13.465Z,-4.00
2019-03-19T22:44:40.802Z,-4.00
2019-03-19T22:47:08.027Z,-4.00
2019-03-19T22:49:35.379Z,-4.00
2019-03-19T22:52:02.598Z,-3.90
2019-03-19T22:54:29.853Z,-3.90
2019-03-19T22:56:57.206Z,-3.90
2019-03-19T22:59:24.521Z,-4.00
2019-03-19T23:01:51.834Z,-4.10
2019-03-19T23:04:26.962Z,-4.10
2019-03-19T23:06:48.270Z,-4.00
2019-03-19T23:09:15.618Z,-4.10
2019-03-19T23:11:42.841Z,-4.10
2019-03-19T23:14:10.098Z,-4.10
2019-03-19T23:16:37.403Z,-4.20
2019-03-19T23:19:04.944Z,-4.20
2019-03-19T23:21:32.267Z,-4.20
2019-03-19T23:23:59.721Z,-4.30
2019-03-19T23:26:27.138Z,-4.30
2019-03-19T23:28:54.484Z,-4.20
2019-03-19T23:31:21.945Z,-4.20
2019-03-19T23:33:49.408Z,-4.10
2019-03-19T23:36:16.757Z,-4.20
2019-03-19T23:38:44.084Z,-4.20
2019-03-19T23:41:11.335Z,-4.20
2019-03-19T23:43:40.363Z,-4.10
2019-03-19T23:46:08.022Z,-4.20
2019-03-19T23:48:35.336Z,-4.20
2019-03-19T23:51:02.677Z,-4.20
2019-03-19T23:53:29.927Z,-4.20
2019-03-19T23:55:57.246Z,-4.20
2019-03-19T23:58:24.617Z,-4.20
